createdAt,value
2023-03-05T00:00:18.584Z,18.50
2023-03-05T00:02:45.865Z,16.77
2023-03-05T00:05:13.129Z,13.17
2023-03-05T00:07:40.368Z,15.67
2023-03-05T00:10:07.933Z,16.67
2023-03-05T00:12:35.250Z,16.63
2023-03-05T00:15:02.563Z,22.50
2023-03-05T00:17:30.801Z,27.00
2023-03-05T00:20:00.329Z,21.23
2023-03-05T00:22:29.558Z,21.73
2023-03-05T00:24:56.802Z,22.23
2023-03-05T00:27:24.300Z,17.27
2023-03-05T00:29:51.710Z,15.43
2023-03-05T00:32:18.940Z,14.30
2023-03-05T00:34:46.216Z,21.57
2023-03-05T00:37:13.418Z,19.23
2023-03-05T00:39:40.855Z,19.17
2023-03-05T00:42:08.334Z,20.43
2023-03-05T00:44:35.753Z,20.43
2023-03-05T00:47:02.990Z,23.47
2023-03-05T00:49:30.171Z,34.03
2023-03-05T00:51:57.353Z,48.93
2023-03-05T00:54:24.504Z,43.67
2023-03-05T00:56:51.718Z,61.93
2023-03-05T00:59:21.781Z,63.80
2023-03-05T01:01:49.026Z,53.93
2023-03-05T01:04:16.572Z,37.07
2023-03-05T01:06:46.147Z,34.27
2023-03-05T01:09:13.423Z,41.00
2023-03-05T01:11:40.826Z,44.97
2023-03-05T01:14:08.212Z,35.97
2023-03-05T01:16:35.397Z,25.97
2023-03-05T01:19:02.604Z,22.97
2023-03-05T01:21:29.850Z,20.47
2023-03-05T01:23:57.142Z,28.00
2023-03-05T01:26:24.511Z,23.43
2023-03-05T01:28:51.671Z,28.63
2023-03-05T01:31:18.892Z,26.97
2023-03-05T01:33:46.332Z,49.67
2023-03-05T01:36:16.732Z,63.10
2023-03-05T01:38:44.366Z,51.40
2023-03-05T01:41:12.292Z,25.77
2023-03-05T01:43:39.805Z,26.50
2023-03-05T01:46:22.365Z,38.17
2023-03-05T01:48:59.105Z,39.90
2023-03-05T01:51:27.634Z,26.80
2023-03-05T01:53:55.820Z,25.93
2023-03-05T01:56:23.081Z,23.80
2023-03-05T01:58:50.695Z,28.70
2023-03-05T02:01:18.113Z,31.87
2023-03-05T02:03:46.220Z,31.73
2023-03-05T02:06:13.683Z,37.23
2023-03-05T02:08:40.912Z,41.00
2023-03-05T02:11:08.411Z,40.53
2023-03-05T02:13:38.642Z,39.10
2023-03-05T02:16:06.371Z,27.40
2023-03-05T02:18:33.736Z,26.53
2023-03-05T02:21:02.666Z,19.87
2023-03-05T02:23:33.947Z,22.80
2023-03-05T02:26:01.263Z,14.90
2023-03-05T02:28:31.402Z,16.63
2023-03-05T02:30:58.657Z,20.27
2023-03-05T02:33:25.930Z,17.27
2023-03-05T02:35:53.167Z,10.83
2023-03-05T02:38:21.621Z,13.93
2023-03-05T02:40:48.852Z,14.97
2023-03-05T02:43:16.192Z,15.83
2023-03-05T02:45:43.427Z,11.20
2023-03-05T02:48:10.697Z,13.47
2023-03-05T02:50:39.708Z,14.23
2023-03-05T02:53:06.990Z,13.20
2023-03-05T02:55:34.575Z,18.43
2023-03-05T02:58:01.808Z,15.87
2023-03-05T03:00:29.285Z,17.63
2023-03-05T03:02:56.879Z,19.13
2023-03-05T03:05:24.241Z,21.07
2023-03-05T03:07:51.733Z,20.30
2023-03-05T03:10:19.057Z,13.90
2023-03-05T03:12:46.532Z,13.17
2023-03-05T03:15:14.912Z,17.83
2023-03-05T03:17:42.167Z,12.87
2023-03-05T03:20:10.807Z,14.83
2023-03-05T03:22:38.157Z,12.83
2023-03-05T03:25:05.615Z,16.90
2023-03-05T03:27:32.814Z,20.47
2023-03-05T03:30:04.914Z,18.33
2023-03-05T03:32:32.784Z,20.90
2023-03-05T03:35:00.447Z,21.13
2023-03-05T03:37:28.130Z,22.93
2023-03-05T03:39:55.772Z,28.93
2023-03-05T03:42:23.462Z,16.00
2023-03-05T03:44:51.383Z,12.37
2023-03-05T03:47:18.757Z,15.00
2023-03-05T03:49:45.960Z,16.43
2023-03-05T03:52:13.190Z,13.30
2023-03-05T03:54:41.027Z,14.33
2023-03-05T03:57:08.225Z,17.83
2023-03-05T03:59:35.462Z,19.80
2023-03-05T04:02:02.799Z,16.37
2023-03-05T04:04:30.418Z,12.60
2023-03-05T04:06:57.977Z,12.10
2023-03-05T04:09:25.167Z,11.90
2023-03-05T04:11:52.360Z,16.03
2023-03-05T04:14:19.751Z,12.20
2023-03-05T04:16:47.053Z,15.17
2023-03-05T04:19:14.485Z,9.53
2023-03-05T04:21:41.786Z,12.67
2023-03-05T04:24:09.259Z,12.13
2023-03-05T04:26:36.674Z,15.30
2023-03-05T04:29:04.303Z,14.73
2023-03-05T04:31:31.610Z,19.97
2023-03-05T04:33:59.982Z,20.13
2023-03-05T04:36:27.179Z,15.27
2023-03-05T04:38:54.544Z,19.97
2023-03-05T04:41:22.221Z,16.77
2023-03-05T04:43:49.515Z,16.00
2023-03-05T04:46:16.993Z,15.00
2023-03-05T04:48:44.233Z,13.23
2023-03-05T04:51:11.448Z,16.87
2023-03-05T04:53:38.701Z,14.40
2023-03-05T04:56:06.054Z,15.07
2023-03-05T04:58:33.260Z,16.10
2023-03-05T05:01:04.687Z,13.50
2023-03-05T05:03:32.125Z,15.07
2023-03-05T05:06:00.172Z,10.60
2023-03-05T05:08:28.099Z,16.97
2023-03-05T05:11:05.520Z,16.17
2023-03-05T05:13:33.400Z,15.40
2023-03-05T05:16:00.807Z,15.20
2023-03-05T05:18:28.088Z,14.60
2023-03-05T05:20:55.469Z,13.87
2023-03-05T05:23:22.688Z,15.10
2023-03-05T05:25:59.667Z,14.63
2023-03-05T05:28:26.883Z,18.13
2023-03-05T05:30:54.391Z,13.07
2023-03-05T05:33:22.211Z,15.77
2023-03-05T05:35:49.595Z,11.97
2023-03-05T05:38:17.076Z,14.30
2023-03-05T05:40:44.359Z,14.77
2023-03-05T05:43:11.684Z,18.33
2023-03-05T05:45:39.538Z,12.03
2023-03-05T05:48:06.878Z,12.47
2023-03-05T05:50:34.140Z,11.13
2023-03-05T05:53:01.323Z,9.07
2023-03-05T05:55:28.696Z,9.77
2023-03-05T05:57:56.162Z,7.10
2023-03-05T06:00:23.568Z,8.87
2023-03-05T06:02:50.794Z,6.53
2023-03-05T06:05:18.046Z,9.90
2023-03-05T06:07:45.285Z,7.77
2023-03-05T06:10:12.776Z,8.10
2023-03-05T06:12:39.980Z,4.43
2023-03-05T06:15:07.511Z,14.53
2023-03-05T06:17:34.857Z,12.60
2023-03-05T06:20:02.350Z,12.23
2023-03-05T06:22:29.660Z,9.17
2023-03-05T06:24:56.899Z,6.83
2023-03-05T06:27:24.068Z,11.97
2023-03-05T06:29:53.275Z,8.53
2023-03-05T06:32:21.103Z,11.07
2023-03-05T06:34:48.350Z,8.13
2023-03-05T06:37:15.600Z,7.23
2023-03-05T06:39:42.832Z,13.77
2023-03-05T06:42:10.307Z,8.53
2023-03-05T06:44:41.043Z,12.63
2023-03-05T06:47:10.546Z,6.20
2023-03-05T06:49:38.271Z,10.07
2023-03-05T06:52:06.194Z,14.80
2023-03-05T06:54:33.385Z,8.37
2023-03-05T06:57:00.656Z,7.43
2023-03-05T06:59:27.809Z,9.33
2023-03-05T07:01:54.971Z,6.17
2023-03-05T07:04:24.195Z,8.30
2023-03-05T07:06:51.561Z,11.80
2023-03-05T07:09:18.771Z,9.10
2023-03-05T07:11:46.206Z,8.10
2023-03-05T07:14:13.815Z,7.50
2023-03-05T07:16:41.004Z,8.87
2023-03-05T07:19:08.215Z,8.40
2023-03-05T07:21:38.335Z,12.23
2023-03-05T07:24:07.128Z,11.63
2023-03-05T07:26:34.408Z,11.00
2023-03-05T07:29:01.942Z,9.63
2023-03-05T07:31:31.702Z,9.00
2023-03-05T07:33:59.928Z,9.17
2023-03-05T07:36:29.665Z,10.87
2023-03-05T07:38:57.427Z,10.43
2023-03-05T07:41:24.853Z,13.37
2023-03-05T07:43:54.534Z,8.83
2023-03-05T07:46:23.601Z,9.97
2023-03-05T07:48:51.420Z,6.57
2023-03-05T07:51:20.153Z,10.60
2023-03-05T07:53:48.554Z,13.67
2023-03-05T07:56:21.567Z,8.93
2023-03-05T07:58:48.824Z,11.03
2023-03-05T08:01:16.323Z,19.77
2023-03-05T08:03:44.034Z,13.47
2023-03-05T08:06:12.586Z,16.33
2023-03-05T08:08:40.131Z,8.93
2023-03-05T08:11:10.779Z,14.40
2023-03-05T08:13:38.396Z,12.27
2023-03-05T08:16:06.583Z,7.57
2023-03-05T08:18:34.285Z,16.33
2023-03-05T08:21:01.638Z,10.97
2023-03-05T08:23:29.199Z,9.90
2023-03-05T08:25:56.938Z,11.23
2023-03-05T08:28:24.691Z,9.97
2023-03-05T08:30:52.032Z,15.43
2023-03-05T08:33:19.412Z,15.47
2023-03-05T08:35:46.918Z,14.27
2023-03-05T08:38:14.191Z,11.00
2023-03-05T08:40:41.526Z,14.17
2023-03-05T08:43:08.731Z,11.10
2023-03-05T08:45:35.966Z,13.20
2023-03-05T08:48:03.286Z,15.63
2023-03-05T08:50:30.619Z,8.80
2023-03-05T08:52:57.967Z,10.10
2023-03-05T08:55:25.193Z,13.27
2023-03-05T08:57:52.404Z,13.60
2023-03-05T09:00:19.873Z,8.43
2023-03-05T09:02:47.119Z,10.53
2023-03-05T09:05:14.575Z,8.10
2023-03-05T09:07:41.880Z,11.87
2023-03-05T09:10:11.578Z,8.87
2023-03-05T09:12:38.856Z,11.40
2023-03-05T09:15:08.441Z,15.97
2023-03-05T09:17:36.192Z,7.47
2023-03-05T09:20:04.458Z,11.73
2023-03-05T09:22:37.984Z,9.00
2023-03-05T09:25:05.452Z,11.23
2023-03-05T09:27:36.210Z,10.33
2023-03-05T09:30:03.824Z,13.93
2023-03-05T09:32:32.599Z,11.83
2023-03-05T09:35:02.081Z,16.00
2023-03-05T09:37:29.535Z,11.33
2023-03-05T09:39:57.170Z,11.17
2023-03-05T09:42:30.406Z,9.93
2023-03-05T09:45:00.390Z,16.47
2023-03-05T09:47:27.779Z,16.63
2023-03-05T09:50:00.391Z,8.90
2023-03-05T09:52:42.734Z,9.67
2023-03-05T09:55:36.346Z,10.83
2023-03-05T09:58:21.247Z,10.23
2023-03-05T10:00:51.130Z,5.17
2023-03-05T10:03:38.548Z,6.97
2023-03-05T10:06:23.130Z,11.20
2023-03-05T10:09:01.219Z,9.77
2023-03-05T10:11:38.968Z,7.10
2023-03-05T10:14:07.984Z,13.83
2023-03-05T10:16:38.190Z,8.47
2023-03-05T10:19:20.710Z,8.70
2023-03-05T10:22:03.324Z,5.63
2023-03-05T10:24:46.216Z,7.03
2023-03-05T10:27:20.671Z,6.00
2023-03-05T10:30:06.853Z,8.40
2023-03-05T10:32:43.447Z,11.30
2023-03-05T10:35:19.232Z,9.87
2023-03-05T10:37:55.489Z,7.97
2023-03-05T10:40:29.994Z,10.33
2023-03-05T10:43:16.184Z,9.23
2023-03-05T10:45:44.752Z,4.73
2023-03-05T10:48:30.436Z,9.77
2023-03-05T10:51:19.178Z,11.40
2023-03-05T10:53:52.707Z,5.83
2023-03-05T10:56:22.627Z,9.23
2023-03-05T10:58:52.040Z,12.40
2023-03-05T11:01:24.345Z,11.07
2023-03-05T11:03:57.819Z,9.23
2023-03-05T11:06:45.789Z,12.47
2023-03-05T11:09:21.005Z,8.90
2023-03-05T11:12:14.494Z,10.43
2023-03-05T11:14:44.898Z,9.30
2023-03-05T11:17:24.156Z,10.17
2023-03-05T11:19:51.437Z,10.13
2023-03-05T11:22:19.118Z,10.20
2023-03-05T11:25:03.293Z,12.83
2023-03-05T11:27:37.694Z,17.10
2023-03-05T11:30:05.593Z,9.27
2023-03-05T11:32:33.118Z,6.70
2023-03-05T11:35:00.385Z,12.10
2023-03-05T11:37:27.602Z,6.70
2023-03-05T11:40:13.733Z,11.17
2023-03-05T11:42:41.657Z,14.77
2023-03-05T11:45:15.324Z,16.07
2023-03-05T11:47:48.400Z,10.93
2023-03-05T11:50:26.445Z,16.20
2023-03-05T11:52:56.371Z,19.80
2023-03-05T11:55:33.504Z,15.73
2023-03-05T11:58:19.376Z,19.40
2023-03-05T12:00:47.357Z,5.73
2023-03-05T12:03:19.829Z,7.57
2023-03-05T12:05:50.324Z,16.53
2023-03-05T12:08:21.518Z,9.40
2023-03-05T12:10:48.807Z,4.73
2023-03-05T12:13:23.442Z,5.10
2023-03-05T12:15:50.845Z,7.17
2023-03-05T12:18:30.497Z,5.73
2023-03-05T12:20:57.816Z,7.83
2023-03-05T12:23:28.006Z,18.23
2023-03-05T12:26:01.191Z,13.53
2023-03-05T12:28:37.427Z,9.50
2023-03-05T12:31:05.744Z,9.57
2023-03-05T12:33:40.144Z,11.17
2023-03-05T12:36:22.659Z,8.93
2023-03-05T12:38:54.416Z,8.13
2023-03-05T12:41:25.898Z,12.30
2023-03-05T12:44:07.157Z,10.80
2023-03-05T12:46:38.494Z,5.90
2023-03-05T12:49:21.225Z,6.20
2023-03-05T12:51:49.314Z,8.93
2023-03-05T12:54:23.676Z,7.10
2023-03-05T12:56:51.266Z,9.37
2023-03-05T12:59:20.996Z,9.33
2023-03-05T13:01:51.990Z,15.93
2023-03-05T13:04:23.242Z,9.33
2023-03-05T13:07:00.672Z,9.83
2023-03-05T13:09:29.906Z,7.80
2023-03-05T13:11:57.400Z,6.37
2023-03-05T13:14:31.000Z,9.47
2023-03-05T13:16:58.527Z,11.27
2023-03-05T13:19:26.137Z,11.80
2023-03-05T13:22:00.513Z,11.03
2023-03-05T13:24:29.223Z,8.83
2023-03-05T13:26:57.087Z,6.30
2023-03-05T13:29:28.491Z,11.47
2023-03-05T13:32:03.368Z,8.60
2023-03-05T13:34:46.226Z,6.37
2023-03-05T13:37:19.250Z,6.13
2023-03-05T13:39:53.058Z,6.30
2023-03-05T13:42:21.566Z,11.30
2023-03-05T13:45:17.874Z,7.93
2023-03-05T13:47:52.159Z,11.73
2023-03-05T13:50:23.802Z,9.57
2023-03-05T13:52:51.101Z,12.20
2023-03-05T13:55:19.275Z,11.17
2023-03-05T13:57:50.355Z,6.73
2023-03-05T14:00:27.068Z,10.23
2023-03-05T14:02:56.691Z,15.60
2023-03-05T14:05:25.454Z,9.43
2023-03-05T14:07:55.646Z,8.47
2023-03-05T14:10:30.592Z,8.13
2023-03-05T14:12:58.634Z,11.13
2023-03-05T14:15:32.754Z,10.87
2023-03-05T14:18:12.298Z,10.03
2023-03-05T14:20:41.991Z,10.37
2023-03-05T14:23:27.662Z,7.67
2023-03-05T14:26:11.875Z,15.20
2023-03-05T14:28:39.096Z,9.73
2023-03-05T14:31:15.210Z,10.37
2023-03-05T14:33:42.923Z,8.87
2023-03-05T14:36:11.095Z,10.73
2023-03-05T14:38:41.441Z,10.33
2023-03-05T14:41:22.574Z,10.00
2023-03-05T14:43:49.803Z,11.20
2023-03-05T14:46:17.453Z,12.77
2023-03-05T14:48:44.813Z,11.50
2023-03-05T14:51:12.381Z,13.63
2023-03-05T14:53:41.025Z,11.63
2023-03-05T14:56:17.241Z,9.97
2023-03-05T14:58:44.461Z,10.57
2023-03-05T15:01:13.259Z,13.77
2023-03-05T15:03:41.702Z,21.03
2023-03-05T15:06:29.197Z,20.87
2023-03-05T15:08:56.434Z,13.03
2023-03-05T15:11:23.788Z,13.63
2023-03-05T15:13:51.148Z,10.27
2023-03-05T15:16:19.210Z,6.87
2023-03-05T15:18:47.012Z,6.70
2023-03-05T15:21:14.276Z,5.80
2023-03-05T15:23:41.816Z,10.00
2023-03-05T15:26:10.483Z,9.53
2023-03-05T15:28:38.880Z,11.07
2023-03-05T15:31:06.600Z,7.73
2023-03-05T15:33:34.056Z,8.17
2023-03-05T15:36:01.265Z,12.97
2023-03-05T15:38:28.505Z,10.63
2023-03-05T15:40:55.756Z,9.47
2023-03-05T15:43:22.953Z,10.00
2023-03-05T15:45:50.183Z,7.47
2023-03-05T15:48:17.424Z,4.97
2023-03-05T15:50:45.419Z,7.33
2023-03-05T15:53:15.869Z,4.73
2023-03-05T15:55:43.865Z,5.53
2023-03-05T15:58:14.484Z,9.27
2023-03-05T16:00:42.104Z,9.90
2023-03-05T16:03:09.390Z,6.93
2023-03-05T16:05:37.007Z,7.50
2023-03-05T16:08:04.300Z,5.17
2023-03-05T16:10:31.954Z,6.37
2023-03-05T16:13:04.157Z,8.37
2023-03-05T16:15:33.062Z,7.93
2023-03-05T16:18:02.453Z,9.83
2023-03-05T16:20:29.834Z,12.13
2023-03-05T16:22:57.083Z,14.40
2023-03-05T16:25:24.292Z,26.73
2023-03-05T16:27:57.719Z,26.43
2023-03-05T16:30:25.188Z,15.27
2023-03-05T16:32:53.786Z,13.97
2023-03-05T16:35:21.526Z,6.10
2023-03-05T16:37:48.931Z,6.07
2023-03-05T16:40:16.208Z,10.97
2023-03-05T16:42:43.480Z,9.50
2023-03-05T16:45:11.556Z,9.30
2023-03-05T16:47:39.221Z,8.27
2023-03-05T16:50:07.276Z,7.13
2023-03-05T16:52:34.578Z,7.97
2023-03-05T16:55:01.880Z,9.43
2023-03-05T16:57:29.245Z,7.80
2023-03-05T16:59:56.812Z,8.87
2023-03-05T17:02:24.220Z,12.13
2023-03-05T17:04:51.607Z,7.87
2023-03-05T17:07:19.129Z,10.10
2023-03-05T17:09:48.010Z,9.00
2023-03-05T17:12:15.250Z,15.63
2023-03-05T17:14:42.481Z,32.40
2023-03-05T17:17:09.712Z,26.50
2023-03-05T17:19:37.044Z,25.83
2023-03-05T17:22:04.765Z,24.27
2023-03-05T17:24:33.038Z,70.80
2023-03-05T17:27:01.073Z,207.07
2023-03-05T17:29:28.512Z,161.73
2023-03-05T17:31:55.782Z,56.57
2023-03-05T17:34:35.608Z,51.13
2023-03-05T17:37:03.796Z,47.37
2023-03-05T17:39:31.050Z,45.23
2023-03-05T17:41:58.208Z,29.87
2023-03-05T17:44:25.488Z,31.10
2023-03-05T17:46:53.003Z,14.97
2023-03-05T17:49:20.259Z,20.83
2023-03-05T17:51:47.545Z,21.40
2023-03-05T17:54:14.848Z,21.90
2023-03-05T17:56:42.041Z,26.53
2023-03-05T17:59:09.344Z,33.43
2023-03-05T18:01:36.596Z,29.60
2023-03-05T18:04:04.013Z,34.90
2023-03-05T18:06:32.574Z,38.17
2023-03-05T18:08:59.833Z,21.70
2023-03-05T18:11:27.558Z,18.80
2023-03-05T18:13:54.871Z,16.07
2023-03-05T18:16:23.726Z,17.70
2023-03-05T18:18:51.000Z,25.10
2023-03-05T18:21:22.704Z,27.10
2023-03-05T18:23:51.044Z,25.40
2023-03-05T18:26:18.642Z,30.87
2023-03-05T18:28:45.878Z,28.10
2023-03-05T18:31:13.140Z,28.13
2023-03-05T18:33:41.077Z,26.90
2023-03-05T18:36:10.826Z,31.13
2023-03-05T18:38:38.601Z,30.17
2023-03-05T18:41:06.553Z,32.80
2023-03-05T18:43:33.895Z,25.87
2023-03-05T18:46:04.883Z,31.60
2023-03-05T18:48:32.201Z,28.60
2023-03-05T18:51:01.282Z,36.57
2023-03-05T18:53:29.407Z,46.53
2023-03-05T18:55:56.725Z,44.03
2023-03-05T18:58:26.031Z,49.63
2023-03-05T19:00:53.902Z,45.50
2023-03-05T19:03:22.964Z,47.57
2023-03-05T19:05:51.247Z,35.27
2023-03-05T19:08:18.776Z,28.23
2023-03-05T19:10:46.199Z,30.67
2023-03-05T19:13:28.088Z,25.97
2023-03-05T19:15:55.393Z,30.27
2023-03-05T19:18:23.440Z,32.03
2023-03-05T19:20:56.947Z,41.20
2023-03-05T19:23:25.392Z,25.73
2023-03-05T19:25:52.636Z,31.30
2023-03-05T19:28:21.289Z,33.00
2023-03-05T19:30:49.989Z,28.13
2023-03-05T19:33:17.225Z,34.77
2023-03-05T19:35:44.705Z,37.60
2023-03-05T19:38:14.663Z,31.00
2023-03-05T19:40:42.010Z,33.47
2023-03-05T19:43:09.305Z,31.23
2023-03-05T19:45:36.571Z,28.23
2023-03-05T19:48:03.809Z,24.70
2023-03-05T19:50:32.907Z,27.90
2023-03-05T19:53:01.594Z,22.77
2023-03-05T19:55:28.956Z,34.43
2023-03-05T19:57:56.219Z,28.30
2023-03-05T20:00:26.336Z,23.73
2023-03-05T20:02:53.596Z,22.70
2023-03-05T20:05:23.094Z,31.70
2023-03-05T20:07:50.261Z,27.60
2023-03-05T20:10:17.596Z,19.23
2023-03-05T20:12:47.906Z,17.87
2023-03-05T20:15:15.348Z,18.97
2023-03-05T20:17:45.832Z,21.27
2023-03-05T20:20:16.879Z,22.40
2023-03-05T20:22:45.138Z,23.20
2023-03-05T20:25:13.485Z,21.83
2023-03-05T20:27:40.871Z,26.23
2023-03-05T20:30:09.681Z,27.17
2023-03-05T20:32:36.980Z,29.63
2023-03-05T20:35:04.654Z,34.13
2023-03-05T20:37:40.292Z,32.50
2023-03-05T20:40:08.237Z,32.03
2023-03-05T20:42:35.434Z,32.47
2023-03-05T20:45:02.687Z,33.57
2023-03-05T20:47:40.657Z,35.97
2023-03-05T20:50:09.921Z,33.03
2023-03-05T20:52:38.192Z,30.23
2023-03-05T20:55:06.263Z,34.57
2023-03-05T20:57:33.553Z,37.10
2023-03-05T21:00:00.778Z,50.53
2023-03-05T21:02:28.207Z,56.90
2023-03-05T21:04:55.448Z,72.43
2023-03-05T21:07:22.735Z,85.47
2023-03-05T21:09:50.171Z,72.37
2023-03-05T21:12:17.362Z,86.90
2023-03-05T21:14:44.526Z,78.07
2023-03-05T21:17:11.805Z,89.40
2023-03-05T21:19:39.762Z,100.87
2023-03-05T21:22:07.124Z,103.60
2023-03-05T21:24:45.535Z,68.73
2023-03-05T21:27:12.870Z,57.73
2023-03-05T21:29:40.251Z,48.03
2023-03-05T21:32:07.681Z,49.43
2023-03-05T21:34:34.978Z,41.83
2023-03-05T21:37:02.520Z,48.07
2023-03-05T21:39:29.661Z,55.60
2023-03-05T21:41:56.854Z,53.73
2023-03-05T21:44:24.059Z,58.80
2023-03-05T21:46:51.547Z,57.03
2023-03-05T21:49:18.880Z,60.07
2023-03-05T21:52:03.173Z,56.90
2023-03-05T21:54:30.436Z,48.30
2023-03-05T21:56:57.697Z,50.97
2023-03-05T21:59:25.365Z,49.50
2023-03-05T22:01:52.697Z,45.93
2023-03-05T22:04:19.926Z,49.30
2023-03-05T22:06:47.222Z,50.50
2023-03-05T22:09:14.515Z,49.53
2023-03-05T22:11:45.178Z,48.23
2023-03-05T22:14:12.426Z,42.93
2023-03-05T22:16:39.655Z,49.87
2023-03-05T22:19:07.190Z,54.63
2023-03-05T22:21:34.621Z,40.57
2023-03-05T22:24:01.805Z,45.40
2023-03-05T22:26:36.136Z,44.63
2023-03-05T22:29:03.428Z,42.87
2023-03-05T22:31:30.980Z,50.60
2023-03-05T22:33:58.203Z,49.43
2023-03-05T22:36:25.641Z,40.80
2023-03-05T22:38:53.451Z,42.27
2023-03-05T22:41:21.793Z,36.07
2023-03-05T22:43:49.425Z,50.37
2023-03-05T22:46:21.686Z,32.70
2023-03-05T22:48:49.586Z,38.77
2023-03-05T22:51:17.886Z,42.97
2023-03-05T22:53:45.456Z,36.17
2023-03-05T22:56:14.529Z,45.17
2023-03-05T22:58:42.166Z,38.17
2023-03-05T23:01:13.401Z,42.30
2023-03-05T23:03:41.858Z,37.03
2023-03-05T23:06:09.641Z,34.33
2023-03-05T23:08:39.894Z,35.23
2023-03-05T23:11:11.504Z,33.70
2023-03-05T23:13:39.378Z,38.40
2023-03-05T23:16:06.747Z,29.23
2023-03-05T23:18:35.964Z,31.60
2023-03-05T23:21:03.273Z,34.23
2023-03-05T23:23:30.624Z,35.07
2023-03-05T23:25:57.955Z,28.03
2023-03-05T23:28:25.172Z,31.90
2023-03-05T23:30:52.631Z,44.37
2023-03-05T23:33:22.726Z,39.43
2023-03-05T23:35:57.165Z,36.40
2023-03-05T23:38:25.341Z,44.30
2023-03-05T23:40:54.045Z,39.70
2023-03-05T23:43:22.111Z,33.57
2023-03-05T23:45:50.358Z,44.70
2023-03-05T23:48:18.092Z,46.10
2023-03-05T23:50:47.989Z,44.80
2023-03-05T23:53:17.532Z,43.63
2023-03-05T23:55:45.170Z,51.87
2023-03-05T23:58:12.436Z,64.93
